Time;durP1;ratioP1;P1;durP2;ratioP2;P2;SDS_P1;SDS_P2;PMS_P1;PMS_P2;Temp;Humidity;BMP_temperature;BMP_pressure;BME280_temperature;BME280_humidity;BME280_pressure;Samples;Min_cycle;Max_cycle;Signal;HPM_P1;HPM_P2
2023/05/28 00:01:37;;;;;;;15.35;9.52;;;;;;;14.20;100.00;101959.06;5281832;28;20032;-74
2023/05/28 00:04:08;;;;;;;18.75;9.73;;;;;;;14.12;100.00;101962.41;5282802;28;20114;-74
2023/05/28 00:06:40;;;;;;;17.90;9.57;;;;;;;14.12;100.00;101965.09;5278516;28;20020;-74
2023/05/28 00:09:12;;;;;;;17.17;9.88;;;;;;;14.09;100.00;101961.84;5277200;28;20032;-74
2023/05/28 00:11:43;;;;;;;22.42;9.35;;;;;;;14.09;100.00;101960.00;5279953;28;20028;-74
2023/05/28 00:14:15;;;;;;;19.92;9.95;;;;;;;13.98;100.00;101957.47;5282064;28;20016;-74
2023/05/28 00:16:46;;;;;;;16.73;9.90;;;;;;;13.94;100.00;101954.22;5277920;28;20035;-74
2023/05/28 00:19:18;;;;;;;22.70;9.55;;;;;;;14.02;100.00;101948.13;5277427;28;20389;-74
2023/05/28 00:21:49;;;;;;;20.10;9.85;;;;;;;13.93;100.00;101943.59;5283080;28;20035;-73
2023/05/28 00:24:20;;;;;;;18.30;9.23;;;;;;;13.88;100.00;101944.00;5284023;28;20017;-73
2023/05/28 00:26:52;;;;;;;18.10;10.18;;;;;;;13.93;100.00;101948.97;5283157;28;20050;-74
2023/05/28 00:29:26;;;;;;;19.42;10.27;;;;;;;13.80;100.00;101943.88;5281764;28;20059;-74
2023/05/28 00:31:57;;;;;;;17.38;10.40;;;;;;;13.75;100.00;101941.59;5281193;28;20059;-74
2023/05/28 00:34:29;;;;;;;16.55;9.48;;;;;;;13.64;100.00;101938.16;5279928;28;20463;-74
2023/05/28 00:37:00;;;;;;;16.20;9.98;;;;;;;13.63;100.00;101941.84;5281648;28;20493;-74
2023/05/28 00:39:32;;;;;;;17.33;10.30;;;;;;;13.47;100.00;101943.19;5282275;28;20481;-74
2023/05/28 00:42:04;;;;;;;18.73;10.00;;;;;;;13.57;100.00;101944.06;5280901;28;20055;-74
2023/05/28 00:44:35;;;;;;;15.48;9.32;;;;;;;13.51;100.00;101955.31;5280925;28;20056;-74
2023/05/28 00:47:07;;;;;;;19.83;10.48;;;;;;;13.51;100.00;101954.47;5289229;28;20055;-74
2023/05/28 00:49:38;;;;;;;17.70;9.73;;;;;;;13.54;100.00;101954.22;5285770;28;20081;-74
2023/05/28 00:52:10;;;;;;;24.10;10.48;;;;;;;13.45;100.00;101950.50;5282899;28;20078;-74
2023/05/28 00:54:41;;;;;;;16.58;9.68;;;;;;;13.37;100.00;101951.16;5280799;28;20031;-74
2023/05/28 00:57:14;;;;;;;17.65;9.98;;;;;;;13.35;100.00;101950.44;5283628;28;20025;-74
2023/05/28 00:59:46;;;;;;;15.30;9.43;;;;;;;13.38;100.00;101946.69;5281090;28;20059;-74
2023/05/28 01:02:18;;;;;;;15.68;9.52;;;;;;;13.26;100.00;101950.38;5281212;28;20611;-74
2023/05/28 01:04:51;;;;;;;16.77;9.80;;;;;;;13.27;100.00;101941.34;5284037;28;20397;-74
2023/05/28 01:07:22;;;;;;;16.73;10.05;;;;;;;13.21;100.00;101937.38;5279972;28;20035;-74
2023/05/28 01:09:54;;;;;;;18.08;9.98;;;;;;;13.22;100.00;101939.09;5280581;28;20025;-74
2023/05/28 01:12:25;;;;;;;17.77;10.27;;;;;;;13.21;100.00;101932.88;5280413;28;20551;-74
2023/05/28 01:14:57;;;;;;;16.88;10.35;;;;;;;13.15;100.00;101946.81;5284949;28;20028;-75
2023/05/28 01:17:30;;;;;;;18.73;10.00;;;;;;;13.22;100.00;101941.78;5286034;28;20024;-75
2023/05/28 01:20:05;;;;;;;21.20;9.80;;;;;;;13.15;100.00;101943.28;5280336;28;20036;-74
2023/05/28 01:22:40;;;;;;;22.27;9.85;;;;;;;13.12;100.00;101936.34;5294495;28;20451;-74
2023/05/28 01:25:12;;;;;;;18.58;10.63;;;;;;;13.08;100.00;101944.75;5282031;28;20428;-74
2023/05/28 01:27:43;;;;;;;17.50;10.43;;;;;;;13.11;100.00;101944.50;5285951;28;20025;-74
2023/05/28 01:30:15;;;;;;;16.00;10.02;;;;;;;13.08;100.00;101942.97;5286625;28;20023;-74
2023/05/28 01:32:46;;;;;;;19.58;10.77;;;;;;;13.15;100.00;101949.47;5291592;28;20426;-74
2023/05/28 01:35:17;;;;;;;21.75;10.90;;;;;;;13.08;100.00;101955.47;5287573;28;20040;-75
2023/05/28 01:37:52;;;;;;;19.10;10.15;;;;;;;13.09;100.00;101954.50;5279176;28;20028;-73
2023/05/28 01:40:24;;;;;;;18.60;10.70;;;;;;;13.05;100.00;101946.72;5280137;28;20039;-74
2023/05/28 01:42:56;;;;;;;20.10;10.25;;;;;;;13.00;100.00;101953.47;5285618;28;20031;-74
2023/05/28 01:45:28;;;;;;;18.20;11.23;;;;;;;12.94;100.00;101945.94;5284817;28;20063;-74
2023/05/28 01:48:00;;;;;;;17.30;11.02;;;;;;;12.93;100.00;101944.28;5286626;28;20052;-74
2023/05/28 01:50:32;;;;;;;18.15;10.45;;;;;;;12.93;100.00;101954.97;5286393;28;20444;-74
2023/05/28 01:53:03;;;;;;;22.42;11.85;;;;;;;12.88;100.00;101946.50;5279844;28;20036;-74
2023/05/28 01:55:35;;;;;;;21.15;10.73;;;;;;;12.84;100.00;101944.06;5278664;28;20478;-74
2023/05/28 01:58:08;;;;;;;17.00;11.25;;;;;;;12.86;100.00;101952.81;5282582;28;20024;-74
2023/05/28 02:00:47;;;;;;;21.65;11.20;;;;;;;12.90;100.00;101950.72;5287165;28;20180;-73
2023/05/28 02:03:18;;;;;;;17.98;11.30;;;;;;;12.82;100.00;101945.19;5285514;28;20470;-74
2023/05/28 02:05:50;;;;;;;17.52;10.55;;;;;;;12.80;100.00;101939.97;5282226;28;20042;-74
2023/05/28 02:08:21;;;;;;;23.27;11.52;;;;;;;12.79;100.00;101940.91;5280084;28;20024;-74
2023/05/28 02:10:52;;;;;;;19.17;10.90;;;;;;;12.80;100.00;101934.59;5282072;28;20078;-74
2023/05/28 02:13:24;;;;;;;17.80;10.55;;;;;;;12.70;100.00;101939.03;5283003;28;20418;-73
2023/05/28 02:15:55;;;;;;;17.95;11.13;;;;;;;12.75;100.00;101934.13;5284383;28;20016;-74
2023/05/28 02:18:26;;;;;;;21.52;11.60;;;;;;;12.68;100.00;101936.47;5284651;28;20064;-74
2023/05/28 02:20:58;;;;;;;21.00;10.60;;;;;;;12.63;100.00;101932.50;5285434;28;20408;-73
2023/05/28 02:23:29;;;;;;;18.92;10.25;;;;;;;12.58;100.00;101926.69;5284543;28;20078;-74
2023/05/28 02:26:01;;;;;;;18.75;11.68;;;;;;;12.54;100.00;101926.09;5285957;28;20046;-74
2023/05/28 02:28:32;;;;;;;17.27;10.82;;;;;;;12.52;100.00;101922.72;5278625;28;20431;-74
2023/05/28 02:31:04;;;;;;;19.42;11.38;;;;;;;12.51;100.00;101929.03;5285441;28;20170;-74
2023/05/28 02:33:38;;;;;;;21.30;11.75;;;;;;;12.47;100.00;101920.41;5278834;28;20039;-74
2023/05/28 02:36:12;;;;;;;22.50;11.25;;;;;;;12.45;100.00;101913.50;5278515;28;20031;-74
2023/05/28 02:38:43;;;;;;;18.50;11.35;;;;;;;12.39;100.00;101916.66;5278940;28;20100;-74
2023/05/28 02:41:15;;;;;;;16.83;10.50;;;;;;;12.37;100.00;101918.63;5279597;28;20495;-74
2023/05/28 02:43:47;;;;;;;17.95;10.95;;;;;;;12.39;100.00;101919.34;5285408;28;20024;-74
2023/05/28 02:46:18;;;;;;;19.92;10.95;;;;;;;12.33;100.00;101925.22;5289482;28;20044;-73
2023/05/28 02:48:49;;;;;;;21.40;11.13;;;;;;;12.36;100.00;101925.81;5280383;28;20012;-74
2023/05/28 02:51:20;;;;;;;19.23;11.00;;;;;;;12.30;100.00;101932.50;5276822;28;20119;-74
2023/05/28 02:53:52;;;;;;;17.90;10.88;;;;;;;12.20;100.00;101933.41;5278037;28;20020;-74
2023/05/28 02:56:23;;;;;;;21.98;11.82;;;;;;;12.19;100.00;101931.72;5281910;28;20099;-74
2023/05/28 02:58:54;;;;;;;21.77;11.25;;;;;;;12.17;100.00;101931.84;5282178;28;20064;-74
2023/05/28 03:01:26;;;;;;;17.30;11.35;;;;;;;12.18;100.00;101930.00;5278756;28;20025;-74
2023/05/28 03:03:58;;;;;;;18.45;9.85;;;;;;;12.22;100.00;101934.97;5278426;28;20036;-74
2023/05/28 03:06:29;;;;;;;17.85;10.90;;;;;;;12.16;100.00;101931.97;5284688;28;20368;-74
2023/05/28 03:09:00;;;;;;;22.90;9.93;;;;;;;12.04;100.00;101934.69;5280294;28;20034;-74
2023/05/28 03:11:32;;;;;;;15.30;10.13;;;;;;;12.08;100.00;101935.28;5277713;28;20020;-74
2023/05/28 03:14:03;;;;;;;16.27;10.02;;;;;;;12.06;100.00;101935.41;5283351;28;20046;-73
2023/05/28 03:16:36;;;;;;;19.02;9.88;;;;;;;11.99;100.00;101936.88;5283597;28;20114;-74
2023/05/28 03:19:07;;;;;;;18.17;9.73;;;;;;;12.07;100.00;101936.25;5277731;28;20104;-74
2023/05/28 03:21:40;;;;;;;13.63;9.95;;;;;;;12.04;100.00;101929.31;5279916;28;20103;-74
2023/05/28 03:24:11;;;;;;;19.73;10.82;;;;;;;12.02;100.00;101925.91;5284778;28;20073;-73
2023/05/28 03:26:42;;;;;;;18.45;9.85;;;;;;;12.03;100.00;101926.78;5279114;28;20017;-73
2023/05/28 03:29:13;;;;;;;18.13;10.38;;;;;;;11.99;100.00;101931.53;5279388;28;20107;-74
2023/05/28 03:31:46;;;;;;;19.33;9.90;;;;;;;11.98;100.00;101932.50;5278145;28;20024;-73
2023/05/28 03:34:17;;;;;;;16.95;9.57;;;;;;;11.95;100.00;101922.03;5276034;28;20063;-73
2023/05/28 03:36:50;;;;;;;14.20;9.10;;;;;;;11.89;100.00;101928.72;5277715;28;20108;-73
2023/05/28 03:39:21;;;;;;;14.75;9.27;;;;;;;11.90;100.00;101930.44;5278007;28;20029;-73
2023/05/28 03:41:52;;;;;;;15.18;9.18;;;;;;;11.87;100.00;101935.16;5280383;28;20047;-73
2023/05/28 03:44:24;;;;;;;19.58;9.57;;;;;;;11.90;100.00;101929.53;5283373;28;20028;-69
2023/05/28 03:46:55;;;;;;;14.82;9.70;;;;;;;11.86;100.00;101933.44;5285546;28;20016;-69
2023/05/28 03:49:26;;;;;;;20.23;9.70;;;;;;;11.84;100.00;101941.59;5281009;28;20031;-69
2023/05/28 03:51:57;;;;;;;16.77;8.88;;;;;;;11.81;100.00;101941.84;5277609;28;20099;-68
2023/05/28 03:54:29;;;;;;;17.25;9.52;;;;;;;11.80;100.00;101944.63;5277891;28;20025;-69
2023/05/28 03:57:00;;;;;;;14.55;9.07;;;;;;;11.84;100.00;101944.28;5284555;28;20033;-69
2023/05/28 03:59:31;;;;;;;20.52;9.63;;;;;;;11.89;100.00;101954.59;5278887;28;20214;-69
2023/05/28 04:02:03;;;;;;;20.33;10.55;;;;;;;11.87;100.00;101945.88;5282480;28;20024;-69
2023/05/28 04:04:34;;;;;;;18.30;9.43;;;;;;;11.93;100.00;101942.72;5283692;28;20527;-69
2023/05/28 04:07:07;;;;;;;16.00;9.15;;;;;;;11.94;100.00;101946.22;5286540;28;20512;-69
2023/05/28 04:09:38;;;;;;;16.33;9.05;;;;;;;11.90;100.00;101946.50;5283602;28;20029;-69
2023/05/28 04:12:10;;;;;;;16.08;9.40;;;;;;;11.86;100.00;101953.00;5284966;28;20669;-69
2023/05/28 04:14:42;;;;;;;16.20;8.90;;;;;;;11.94;100.00;101948.91;5288149;28;20024;-68
2023/05/28 04:17:13;;;;;;;19.77;9.43;;;;;;;11.96;100.00;101950.47;5280652;28;20035;-68
2023/05/28 04:19:45;;;;;;;16.50;9.48;;;;;;;11.94;100.00;101949.78;5281864;28;20151;-69
2023/05/28 04:22:17;;;;;;;17.33;9.95;;;;;;;11.88;100.00;101956.41;5285457;28;20071;-69
2023/05/28 04:24:48;;;;;;;19.02;9.05;;;;;;;11.90;100.00;101964.31;5282415;28;20489;-68
2023/05/28 04:27:19;;;;;;;16.10;10.07;;;;;;;12.01;100.00;101960.78;5281946;28;21435;-69
2023/05/28 04:29:52;;;;;;;18.80;10.15;;;;;;;12.00;100.00;101962.63;5282199;28;20028;-69
2023/05/28 04:32:24;;;;;;;16.25;9.48;;;;;;;12.01;100.00;101958.13;5280029;28;20078;-69
2023/05/28 04:34:55;;;;;;;18.85;9.32;;;;;;;12.02;100.00;101962.50;5286159;28;20024;-69
2023/05/28 04:37:27;;;;;;;23.40;10.60;;;;;;;12.10;100.00;101960.06;5281353;28;20107;-69
2023/05/28 04:39:59;;;;;;;16.40;9.80;;;;;;;12.06;100.00;101966.63;5281485;28;20020;-70
2023/05/28 04:42:30;;;;;;;18.92;10.45;;;;;;;12.06;100.00;101970.16;5281872;28;20032;-69
2023/05/28 04:45:01;;;;;;;20.40;10.43;;;;;;;12.15;100.00;101979.25;5285395;28;20034;-69
2023/05/28 04:47:34;;;;;;;19.75;10.07;;;;;;;12.15;100.00;101968.56;5283355;28;20020;-70
2023/05/28 04:50:06;;;;;;;16.75;9.40;;;;;;;12.18;100.00;101965.63;5280094;28;20023;-69
2023/05/28 04:52:37;;;;;;;14.45;9.18;;;;;;;12.26;100.00;101973.88;5280154;28;20172;-70
2023/05/28 04:55:09;;;;;;;15.32;9.93;;;;;;;12.23;100.00;101974.13;5280461;28;20048;-70
2023/05/28 04:57:41;;;;;;;18.85;9.88;;;;;;;12.24;100.00;101975.81;5284674;28;20035;-70
2023/05/28 05:00:12;;;;;;;20.60;11.15;;;;;;;12.26;100.00;101979.22;5279952;28;20032;-70
2023/05/28 05:02:44;;;;;;;18.85;9.30;;;;;;;12.37;100.00;101972.97;5286330;28;20559;-70
2023/05/28 05:05:15;;;;;;;19.88;9.52;;;;;;;12.38;100.00;101968.50;5291379;28;20045;-70
2023/05/28 05:07:46;;;;;;;27.00;11.23;;;;;;;12.44;100.00;101966.13;5280512;28;20091;-69
2023/05/28 05:10:17;;;;;;;16.48;9.90;;;;;;;12.41;100.00;101977.13;5281515;28;20033;-69
2023/05/28 05:12:49;;;;;;;17.80;10.05;;;;;;;12.46;100.00;101974.91;5280680;28;20099;-70
2023/05/28 05:15:20;;;;;;;21.13;10.25;;;;;;;12.55;100.00;101977.78;5284631;28;20047;-69
2023/05/28 05:17:52;;;;;;;16.58;9.38;;;;;;;12.59;100.00;101979.25;5280294;28;20028;-69
2023/05/28 05:20:23;;;;;;;23.05;11.65;;;;;;;12.64;100.00;101977.88;5279880;28;20038;-69
2023/05/28 05:22:54;;;;;;;18.45;9.73;;;;;;;12.64;100.00;101977.88;5283769;28;20096;-70
2023/05/28 05:25:26;;;;;;;20.08;10.10;;;;;;;12.68;100.00;101981.16;5279402;28;20024;-69
2023/05/28 05:27:57;;;;;;;19.02;10.63;;;;;;;12.74;100.00;101979.78;5280400;28;20020;-68
2023/05/28 05:30:28;;;;;;;18.38;10.07;;;;;;;12.75;100.00;101984.16;5283462;28;20028;-71
2023/05/28 05:33:00;;;;;;;21.95;10.55;;;;;;;12.82;100.00;101988.03;5280505;28;20469;-69
2023/05/28 05:35:31;;;;;;;19.05;9.45;;;;;;;12.88;100.00;101982.13;5280922;28;20024;-69
2023/05/28 05:38:02;;;;;;;20.92;10.30;;;;;;;12.90;100.00;101985.53;5279885;28;20100;-70
2023/05/28 05:40:33;;;;;;;17.60;10.70;;;;;;;12.98;100.00;101985.75;5280040;28;20035;-69
2023/05/28 05:43:05;;;;;;;21.92;10.27;;;;;;;13.01;100.00;101985.47;5279597;28;20021;-69
2023/05/28 05:45:36;;;;;;;19.25;9.82;;;;;;;13.07;100.00;101993.97;5280387;28;20485;-70
2023/05/28 05:48:07;;;;;;;20.60;9.57;;;;;;;13.12;100.00;102002.47;5281408;28;20103;-70
2023/05/28 05:50:55;;;;;;;17.73;10.40;;;;;;;13.21;100.00;102001.69;5279770;28;20031;-70
2023/05/28 05:53:27;;;;;;;21.08;9.93;;;;;;;13.30;100.00;102000.88;5278986;28;20040;-70
2023/05/28 05:55:58;;;;;;;20.63;10.13;;;;;;;13.35;100.00;101998.69;5280993;28;20089;-69
2023/05/28 05:58:31;;;;;;;19.25;11.15;;;;;;;13.46;100.00;101999.59;5285045;28;20100;-69
2023/05/28 06:01:03;;;;;;;23.60;12.27;;;;;;;13.53;100.00;102000.75;5279483;28;20032;-70
2023/05/28 06:03:35;;;;;;;23.13;11.07;;;;;;;13.61;100.00;102003.63;5285660;28;20474;-69
2023/05/28 06:06:06;;;;;;;19.23;9.73;;;;;;;13.72;100.00;102000.84;5285353;28;20016;-70
2023/05/28 06:08:38;;;;;;;23.20;10.70;;;;;;;13.87;100.00;102003.19;5278999;28;20384;-69
2023/05/28 06:11:09;;;;;;;20.50;10.00;;;;;;;14.01;100.00;101997.44;5279589;28;20020;-69
2023/05/28 06:13:41;;;;;;;17.58;10.88;;;;;;;14.14;100.00;101991.81;5279607;28;20063;-70
2023/05/28 06:16:12;;;;;;;20.13;10.38;;;;;;;14.32;100.00;101997.34;5279711;28;20456;-70
2023/05/28 06:18:43;;;;;;;18.25;9.80;;;;;;;14.56;100.00;101997.78;5278663;28;20430;-70
2023/05/28 06:21:15;;;;;;;15.65;8.90;;;;;;;14.80;100.00;102001.09;5278810;28;20024;-70
2023/05/28 06:23:46;;;;;;;13.55;8.20;;;;;;;15.02;100.00;101998.06;5278137;28;20028;-70
2023/05/28 06:26:17;;;;;;;18.15;9.73;;;;;;;15.30;100.00;102000.84;5281522;28;20397;-70
2023/05/28 06:28:49;;;;;;;19.52;9.18;;;;;;;15.61;100.00;101997.94;5278961;28;20428;-70
2023/05/28 06:31:20;;;;;;;16.27;9.35;;;;;;;15.86;100.00;101991.06;5280446;28;20066;-70
2023/05/28 06:33:52;;;;;;;17.17;9.18;;;;;;;16.13;100.00;101983.97;5279080;28;20024;-70
2023/05/28 06:36:23;;;;;;;18.85;9.07;;;;;;;16.39;100.00;101986.78;5281157;28;20032;-70
2023/05/28 06:38:55;;;;;;;16.52;9.80;;;;;;;16.65;100.00;101984.16;5278223;28;20034;-69
2023/05/28 06:41:26;;;;;;;14.00;8.30;;;;;;;16.97;100.00;101983.63;5282396;28;20383;-70
2023/05/28 06:43:58;;;;;;;17.48;8.57;;;;;;;17.16;100.00;101984.41;5279510;28;20032;-70
2023/05/28 06:46:30;;;;;;;16.67;8.32;;;;;;;17.38;100.00;101988.44;5279359;28;20055;-69
2023/05/28 06:49:01;;;;;;;12.95;7.70;;;;;;;17.70;100.00;101989.63;5283272;28;20016;-70
2023/05/28 06:51:33;;;;;;;15.10;8.05;;;;;;;17.96;100.00;101981.50;5281157;28;20026;-70
2023/05/28 06:54:04;;;;;;;17.17;7.97;;;;;;;18.21;100.00;101987.81;5283744;28;20078;-70
2023/05/28 06:56:35;;;;;;;17.20;8.25;;;;;;;18.58;100.00;101983.81;5278048;28;20440;-71
2023/05/28 06:59:07;;;;;;;16.13;7.80;;;;;;;18.83;100.00;101984.72;5279222;28;20016;-70
2023/05/28 07:01:38;;;;;;;13.98;7.25;;;;;;;19.12;100.00;101993.31;5284765;28;20560;-70
2023/05/28 07:04:09;;;;;;;14.05;7.85;;;;;;;19.39;100.00;101992.06;5278136;28;20028;-71
2023/05/28 07:06:41;;;;;;;17.80;7.85;;;;;;;19.59;100.00;101993.34;5277919;28;20032;-70
2023/05/28 07:09:12;;;;;;;14.30;8.38;;;;;;;19.68;100.00;101996.88;5289725;28;20027;-70
2023/05/28 07:11:43;;;;;;;16.23;7.53;;;;;;;19.93;100.00;101989.56;5280076;28;20514;-70
2023/05/28 07:14:14;;;;;;;14.32;6.95;;;;;;;20.19;100.00;101991.94;5283865;28;20017;-70
2023/05/28 07:16:46;;;;;;;10.93;7.03;;;;;;;20.36;100.00;101995.41;5277169;28;20048;-70
2023/05/28 07:19:17;;;;;;;12.38;6.50;;;;;;;20.66;100.00;101995.56;5278465;28;20085;-70
2023/05/28 07:21:48;;;;;;;14.65;7.15;;;;;;;20.99;100.00;101986.31;5277477;28;20541;-70
2023/05/28 07:24:20;;;;;;;16.17;7.10;;;;;;;21.23;100.00;101990.63;5279910;28;20063;-70
2023/05/28 07:26:51;;;;;;;14.23;6.85;;;;;;;21.28;100.00;101994.50;5283834;28;20582;-69
2023/05/28 07:29:23;;;;;;;11.13;5.90;;;;;;;21.48;100.00;102002.13;5281257;28;20028;-71
2023/05/28 07:31:54;;;;;;;13.07;6.65;;;;;;;21.62;100.00;102003.16;5278168;28;20016;-70
2023/05/28 07:34:25;;;;;;;11.52;6.35;;;;;;;21.80;100.00;102008.19;5284910;28;20026;-70
2023/05/28 07:36:57;;;;;;;13.10;6.68;;;;;;;21.86;100.00;102000.13;5283500;28;20033;-70
2023/05/28 07:39:28;;;;;;;14.95;6.18;;;;;;;22.00;100.00;102000.28;5285964;28;20094;-70
2023/05/28 07:41:59;;;;;;;11.40;6.20;;;;;;;22.38;100.00;101998.25;5287425;28;20054;-70
2023/05/28 07:44:30;;;;;;;13.35;6.20;;;;;;;22.67;100.00;102001.91;5283429;28;20039;-69
2023/05/28 07:47:02;;;;;;;9.75;5.25;;;;;;;22.75;100.00;101995.47;5288505;28;20049;-70
2023/05/28 07:49:33;;;;;;;13.60;6.00;;;;;;;22.73;100.00;101995.66;5287145;28;20477;-70
2023/05/28 07:52:04;;;;;;;13.52;6.03;;;;;;;22.81;100.00;101994.69;5282252;28;20028;-70
2023/05/28 07:54:39;;;;;;;14.90;6.13;;;;;;;22.91;100.00;101997.91;5286903;28;20031;-70
2023/05/28 07:57:10;;;;;;;13.65;5.82;;;;;;;23.00;100.00;101996.75;5294722;28;20028;-70
2023/05/28 07:59:42;;;;;;;12.15;6.28;;;;;;;23.27;100.00;101996.13;5292158;28;20028;-70
2023/05/28 08:02:13;;;;;;;16.42;6.10;;;;;;;23.24;100.00;102001.97;5282169;28;20024;-70
2023/05/28 08:04:44;;;;;;;11.07;5.63;;;;;;;23.40;100.00;102002.50;5281114;28;20103;-70
2023/05/28 08:07:16;;;;;;;10.80;5.60;;;;;;;23.68;100.00;102003.47;5281973;28;20060;-70
2023/05/28 08:09:47;;;;;;;14.93;5.78;;;;;;;23.73;100.00;102001.00;5280528;28;20508;-71
2023/05/28 08:12:18;;;;;;;14.30;6.50;;;;;;;23.61;100.00;102008.88;5281884;28;20401;-70
2023/05/28 08:14:50;;;;;;;12.73;5.88;;;;;;;23.80;100.00;102007.31;5281233;28;20032;-71
2023/05/28 08:17:22;;;;;;;11.73;5.57;;;;;;;23.83;100.00;101998.78;5281557;28;20032;-70
2023/05/28 08:19:53;;;;;;;13.00;5.55;;;;;;;23.77;100.00;101996.81;5280367;28;20035;-70
2023/05/28 08:22:25;;;;;;;16.17;7.32;;;;;;;23.52;100.00;102001.94;5293166;28;20042;-70
2023/05/28 08:24:56;;;;;;;17.20;8.00;;;;;;;23.78;100.00;101999.34;5280673;28;20428;-70
2023/05/28 08:27:27;;;;;;;16.73;7.10;;;;;;;23.71;100.00;101993.03;5280473;28;20020;-70
2023/05/28 08:29:58;;;;;;;15.85;7.38;;;;;;;23.51;100.00;101995.66;5293904;28;20036;-69
2023/05/28 08:32:30;;;;;;;13.80;7.53;;;;;;;23.61;100.00;102008.88;5284071;28;20390;-70
2023/05/28 08:35:01;;;;;;;13.13;7.25;;;;;;;23.96;100.00;101998.81;5280193;28;20338;-71
2023/05/28 08:37:32;;;;;;;12.15;7.32;;;;;;;23.99;100.00;101989.41;5283211;28;20384;-71
2023/05/28 08:40:08;;;;;;;14.52;7.65;;;;;;;24.22;100.00;101994.50;5283997;28;20115;-70
2023/05/28 08:42:39;;;;;;;13.77;7.60;;;;;;;24.41;100.00;101992.03;5281487;28;20020;-71
2023/05/28 08:45:11;;;;;;;14.60;8.07;;;;;;;24.64;100.00;101986.22;5279335;28;20493;-71
2023/05/28 08:47:43;;;;;;;12.65;6.85;;;;;;;24.85;100.00;101988.75;5287748;28;20024;-71
2023/05/28 08:50:16;;;;;;;13.65;7.15;;;;;;;25.17;100.00;101991.66;5282106;28;20056;-71
2023/05/28 08:52:48;;;;;;;16.85;7.05;;;;;;;25.56;100.00;101979.03;5279575;28;20054;-70
2023/05/28 08:55:19;;;;;;;15.88;6.68;;;;;;;25.62;100.00;101983.59;5293023;28;20481;-70
2023/05/28 08:57:52;;;;;;;16.50;7.82;;;;;;;26.13;100.00;101979.22;5287359;28;20040;-69
2023/05/28 09:00:23;;;;;;;11.40;6.97;;;;;;;26.11;100.00;101972.31;5280521;28;20020;-69
2023/05/28 09:02:55;;;;;;;14.27;6.38;;;;;;;26.01;100.00;101976.31;5279238;28;20470;-70
2023/05/28 09:05:26;;;;;;;10.18;5.78;;;;;;;26.49;100.00;101966.78;5284774;28;20028;-70
2023/05/28 09:07:58;;;;;;;11.17;5.67;;;;;;;26.67;100.00;101963.31;5279853;28;20048;-70
2023/05/28 09:10:29;;;;;;;9.75;4.43;;;;;;;26.78;97.84;101969.94;5279572;28;20301;-72
2023/05/28 09:13:01;;;;;;;8.93;4.10;;;;;;;26.86;96.12;101966.94;5279933;28;20024;-70
2023/05/28 09:15:35;;;;;;;10.25;4.10;;;;;;;27.25;93.64;101967.59;5288313;28;20557;-71
2023/05/28 09:18:06;;;;;;;9.20;3.70;;;;;;;27.40;89.80;101963.69;5286080;28;20028;-70
2023/05/28 09:20:38;;;;;;;9.30;4.13;;;;;;;27.94;90.16;101969.38;5278825;28;20048;-70
2023/05/28 09:23:09;;;;;;;11.05;4.22;;;;;;;28.25;86.74;101960.91;5279683;28;20040;-71
2023/05/28 09:25:41;;;;;;;9.13;4.38;;;;;;;28.09;81.33;101970.63;5279239;28;20032;-70
2023/05/28 09:28:13;;;;;;;9.52;4.20;;;;;;;28.29;81.08;101964.03;5246622;28;1029201;-70
2023/05/28 09:30:45;;;;;;;11.88;4.25;;;;;;;28.25;79.35;101971.06;5298686;28;20063;-71
2023/05/28 09:33:17;;;;;;;9.63;4.22;;;;;;;28.27;78.48;101974.41;5282635;28;20099;-71
2023/05/28 09:35:59;;;;;;;9.63;4.45;;;;;;;28.24;80.67;101970.22;5280122;28;20031;-71
2023/05/28 09:38:40;;;;;;;10.10;5.00;;;;;;;28.42;80.50;101963.84;5279850;28;20020;-71
2023/05/28 09:41:19;;;;;;;8.05;4.13;;;;;;;28.40;77.81;101960.50;5282273;28;20109;-70
2023/05/28 09:43:58;;;;;;;10.13;4.00;;;;;;;28.44;77.82;101969.91;5285136;28;20422;-71
2023/05/28 09:46:32;;;;;;;8.57;3.83;;;;;;;28.25;74.93;101960.09;5282315;28;20032;-70
2023/05/28 09:49:04;;;;;;;8.52;3.75;;;;;;;28.28;75.55;101963.19;5285955;28;20017;-70
2023/05/28 09:51:36;;;;;;;8.63;3.85;;;;;;;28.54;72.32;101952.91;5281710;28;20020;-70
2023/05/28 09:54:10;;;;;;;9.50;4.05;;;;;;;27.92;69.15;101961.38;5280465;28;20111;-70
2023/05/28 09:56:42;;;;;;;10.23;3.67;;;;;;;27.98;70.73;101946.75;5280308;28;20588;-70
2023/05/28 09:59:17;;;;;;;7.65;3.45;;;;;;;27.74;65.48;101964.97;5280113;28;20028;-71
2023/05/28 10:01:59;;;;;;;8.88;3.25;;;;;;;27.91;66.08;101955.06;5279275;28;20085;-71
2023/05/28 10:04:35;;;;;;;7.70;3.63;;;;;;;27.99;65.74;101958.56;5280493;28;20020;-71
2023/05/28 10:07:10;;;;;;;9.60;3.47;;;;;;;28.00;66.17;101955.59;5280390;28;20040;-71
2023/05/28 10:09:43;;;;;;;8.90;3.65;;;;;;;27.90;66.92;101958.00;5278676;28;20035;-71
2023/05/28 10:12:20;;;;;;;9.45;3.88;;;;;;;27.69;68.87;101954.69;5283707;28;20032;-71
2023/05/28 10:14:52;;;;;;;10.07;4.18;;;;;;;27.65;69.06;101953.47;5279410;28;20040;-71
2023/05/28 10:17:23;;;;;;;7.97;4.00;;;;;;;27.92;69.13;101955.91;5279103;28;20032;-71
2023/05/28 10:19:54;;;;;;;7.85;3.75;;;;;;;27.72;66.53;101961.63;5279507;28;20024;-70
2023/05/28 10:22:27;;;;;;;8.48;3.88;;;;;;;27.56;68.07;101957.63;5284241;28;20056;-70
2023/05/28 10:25:00;;;;;;;8.57;3.83;;;;;;;27.73;67.43;101958.66;5280116;28;20021;-70
2023/05/28 10:27:32;;;;;;;8.50;3.58;;;;;;;28.04;68.73;101959.53;5286080;28;20028;-70
2023/05/28 10:30:04;;;;;;;8.48;4.13;;;;;;;27.73;64.88;101960.53;5282400;28;20058;-70
2023/05/28 10:32:40;;;;;;;10.55;4.30;;;;;;;27.31;64.76;101954.94;5278904;28;20143;-70
2023/05/28 10:35:12;;;;;;;11.20;4.40;;;;;;;27.51;66.91;101950.06;5279621;28;20028;-69
2023/05/28 10:37:43;;;;;;;8.57;3.50;;;;;;;27.63;66.06;101961.09;5277810;28;20378;-69
2023/05/28 10:40:34;;;;;;;8.18;3.75;;;;;;;27.95;66.22;101958.19;5288164;28;20024;-69
2023/05/28 10:43:37;;;;;;;9.77;3.70;;;;;;;28.06;66.64;101949.16;5279629;28;20024;-69
2023/05/28 10:46:10;;;;;;;10.32;3.60;;;;;;;28.12;63.38;101957.53;5280282;28;20497;-69
2023/05/28 10:49:11;;;;;;;9.27;4.00;;;;;;;28.39;65.00;101963.47;5283107;28;20032;-69
2023/05/28 10:52:20;;;;;;;8.50;3.58;;;;;;;28.73;65.98;101955.53;5278791;28;20028;-69
2023/05/28 10:54:53;;;;;;;9.20;4.13;;;;;;;28.47;62.82;101960.34;5273223;28;20043;-69
2023/05/28 10:57:24;;;;;;;6.88;3.53;;;;;;;28.52;63.88;101956.91;5279518;28;20059;-72
2023/05/28 11:00:00;;;;;;;7.72;3.45;;;;;;;28.04;61.57;101964.19;5279160;28;20048;-70
2023/05/28 11:02:35;;;;;;;7.70;3.88;;;;;;;27.79;61.45;101959.63;5278777;28;20060;-70
2023/05/28 11:05:06;;;;;;;6.85;3.38;;;;;;;27.22;58.98;101962.56;5279215;28;20027;-70
2023/05/28 11:07:42;;;;;;;7.22;3.25;;;;;;;27.38;60.93;101954.88;5280308;28;20016;-70
2023/05/28 11:10:15;;;;;;;10.00;3.28;;;;;;;27.54;61.77;101963.31;5279294;28;20031;-70
2023/05/28 11:12:47;;;;;;;8.07;4.15;;;;;;;27.68;62.92;101950.28;5284076;28;20027;-70
2023/05/28 11:15:21;;;;;;;8.98;4.32;;;;;;;27.76;62.44;101951.03;5282361;28;20020;-70
2023/05/28 11:17:52;;;;;;;7.07;3.80;;;;;;;27.92;62.92;101953.16;5278621;28;20032;-70
2023/05/28 11:20:25;;;;;;;9.57;3.80;;;;;;;28.16;62.20;101956.84;5284544;28;20050;-71
2023/05/28 11:22:57;;;;;;;9.88;3.50;;;;;;;28.16;61.74;101953.28;5278707;28;20310;-71
2023/05/28 11:25:28;;;;;;;7.53;3.33;;;;;;;27.93;61.57;101957.59;5283894;28;20062;-70
2023/05/28 11:28:00;;;;;;;9.50;3.67;;;;;;;27.82;61.23;101955.59;5278260;28;20036;-69
2023/05/28 11:30:31;;;;;;;8.05;4.03;;;;;;;27.77;60.15;101961.78;5280102;28;20036;-69
2023/05/28 11:33:03;;;;;;;8.80;3.30;;;;;;;27.96;60.10;101953.53;5278104;28;20028;-70